sensor_id;sensor_type;location;lat;lon;timestamp;temperature;humidity
33508;DHT22;25568;37.410;-122.096;2023-03-01T00:01:53;17.60;81.80
33508;DHT22;25568;37.410;-122.096;2023-03-01T00:04:24;17.70;81.80
33508;DHT22;25568;37.410;-122.096;2023-03-01T00:06:53;17.70;81.80
33508;DHT22;25568;37.410;-122.096;2023-03-01T00:09:22;17.70;81.70
33508;DHT22;25568;37.410;-122.096;2023-03-01T00:11:51;17.70;81.80
33508;DHT22;25568;37.410;-122.096;2023-03-01T00:14:20;17.70;81.80
33508;DHT22;25568;37.410;-122.096;2023-03-01T00:16:50;17.80;81.80
33508;DHT22;25568;37.410;-122.096;2023-03-01T00:19:22;17.90;81.70
33508;DHT22;25568;37.410;-122.096;2023-03-01T00:21:51;17.90;81.60
33508;DHT22;25568;37.410;-122.096;2023-03-01T00:24:20;18.00;81.50
33508;DHT22;25568;37.410;-122.096;2023-03-01T00:26:49;18.00;81.30
33508;DHT22;25568;37.410;-122.096;2023-03-01T00:29:22;18.00;81.40
33508;DHT22;25568;37.410;-122.096;2023-03-01T00:31:51;18.10;81.20
33508;DHT22;25568;37.410;-122.096;2023-03-01T00:34:20;18.10;81.20
33508;DHT22;25568;37.410;-122.096;2023-03-01T00:36:50;18.10;81.00
33508;DHT22;25568;37.410;-122.096;2023-03-01T00:39:19;18.10;80.90
33508;DHT22;25568;37.410;-122.096;2023-03-01T00:41:48;18.20;81.00
33508;DHT22;25568;37.410;-122.096;2023-03-01T00:44:17;18.20;80.90
33508;DHT22;25568;37.410;-122.096;2023-03-01T00:46:46;18.20;81.00
33508;DHT22;25568;37.410;-122.096;2023-03-01T00:49:15;18.30;80.80
33508;DHT22;25568;37.410;-122.096;2023-03-01T00:51:44;18.20;80.70
33508;DHT22;25568;37.410;-122.096;2023-03-01T00:54:14;18.30;80.70
33508;DHT22;25568;37.410;-122.096;2023-03-01T00:56:46;18.30;80.60
33508;DHT22;25568;37.410;-122.096;2023-03-01T00:59:15;18.30;80.60
33508;DHT22;25568;37.410;-122.096;2023-03-01T01:01:44;18.30;80.40
33508;DHT22;25568;37.410;-122.096;2023-03-01T01:04:13;18.30;80.50
33508;DHT22;25568;37.410;-122.096;2023-03-01T01:06:43;18.30;80.40
33508;DHT22;25568;37.410;-122.096;2023-03-01T01:09:16;18.30;80.20
33508;DHT22;25568;37.410;-122.096;2023-03-01T01:11:46;18.40;80.20
33508;DHT22;25568;37.410;-122.096;2023-03-01T01:14:16;18.40;80.00
33508;DHT22;25568;37.410;-122.096;2023-03-01T01:16:45;18.40;80.00
33508;DHT22;25568;37.410;-122.096;2023-03-01T01:19:14;18.40;79.90
33508;DHT22;25568;37.410;-122.096;2023-03-01T01:21:43;18.40;79.80
33508;DHT22;25568;37.410;-122.096;2023-03-01T01:24:14;18.50;79.90
33508;DHT22;25568;37.410;-122.096;2023-03-01T01:26:43;18.50;79.70
33508;DHT22;25568;37.410;-122.096;2023-03-01T01:29:13;18.50;79.90
33508;DHT22;25568;37.410;-122.096;2023-03-01T01:31:43;18.50;79.70
33508;DHT22;25568;37.410;-122.096;2023-03-01T01:34:15;18.50;79.90
33508;DHT22;25568;37.410;-122.096;2023-03-01T01:36:48;18.50;79.80
33508;DHT22;25568;37.410;-122.096;2023-03-01T01:39:19;18.50;79.70
33508;DHT22;25568;37.410;-122.096;2023-03-01T01:41:48;18.50;79.90
33508;DHT22;25568;37.410;-122.096;2023-03-01T01:44:19;18.50;79.80
33508;DHT22;25568;37.410;-122.096;2023-03-01T01:46:52;18.50;80.00
33508;DHT22;25568;37.410;-122.096;2023-03-01T01:49:30;18.60;80.00
33508;DHT22;25568;37.410;-122.096;2023-03-01T01:52:08;18.50;80.10
33508;DHT22;25568;37.410;-122.096;2023-03-01T01:54:44;18.60;80.00
33508;DHT22;25568;37.410;-122.096;2023-03-01T01:57:17;18.60;80.00
33508;DHT22;25568;37.410;-122.096;2023-03-01T01:59:51;18.60;79.90
33508;DHT22;25568;37.410;-122.096;2023-03-01T02:02:21;18.60;79.90
33508;DHT22;25568;37.410;-122.096;2023-03-01T02:04:55;18.60;80.00
33508;DHT22;25568;37.410;-122.096;2023-03-01T02:07:30;18.50;80.20
33508;DHT22;25568;37.410;-122.096;2023-03-01T02:10:01;18.50;80.40
33508;DHT22;25568;37.410;-122.096;2023-03-01T02:12:31;18.40;80.50
33508;DHT22;25568;37.410;-122.096;2023-03-01T02:15:00;18.30;80.60
33508;DHT22;25568;37.410;-122.096;2023-03-01T02:17:29;18.30;80.70
33508;DHT22;25568;37.410;-122.096;2023-03-01T02:20:09;18.30;80.90
33508;DHT22;25568;37.410;-122.096;2023-03-01T02:22:45;18.30;80.90
33508;DHT22;25568;37.410;-122.096;2023-03-01T02:25:26;18.20;80.90
33508;DHT22;25568;37.410;-122.096;2023-03-01T02:28:01;18.20;81.00
33508;DHT22;25568;37.410;-122.096;2023-03-01T02:30:34;18.20;81.00
33508;DHT22;25568;37.410;-122.096;2023-03-01T02:33:04;18.20;81.10
33508;DHT22;25568;37.410;-122.096;2023-03-01T02:35:35;18.10;81.00
33508;DHT22;25568;37.410;-122.096;2023-03-01T02:38:07;18.20;81.20
33508;DHT22;25568;37.410;-122.096;2023-03-01T02:40:38;18.10;81.20
33508;DHT22;25568;37.410;-122.096;2023-03-01T02:43:09;18.10;81.20
33508;DHT22;25568;37.410;-122.096;2023-03-01T02:45:47;18.00;81.20
33508;DHT22;25568;37.410;-122.096;2023-03-01T02:48:16;18.00;81.20
33508;DHT22;25568;37.410;-122.096;2023-03-01T02:50:59;18.00;81.20
33508;DHT22;25568;37.410;-122.096;2023-03-01T02:53:36;18.00;81.20
33508;DHT22;25568;37.410;-122.096;2023-03-01T02:56:08;18.00;81.20
33508;DHT22;25568;37.410;-122.096;2023-03-01T02:58:40;18.00;81.20
33508;DHT22;25568;37.410;-122.096;2023-03-01T03:01:14;18.00;81.30
33508;DHT22;25568;37.410;-122.096;2023-03-01T03:03:43;18.00;81.20
33508;DHT22;25568;37.410;-122.096;2023-03-01T03:06:12;17.90;81.20
33508;DHT22;25568;37.410;-122.096;2023-03-01T03:08:41;17.90;81.10
33508;DHT22;25568;37.410;-122.096;2023-03-01T03:11:10;17.90;81.10
33508;DHT22;25568;37.410;-122.096;2023-03-01T03:13:39;17.90;81.20
33508;DHT22;25568;37.410;-122.096;2023-03-01T03:16:16;17.80;81.10
33508;DHT22;25568;37.410;-122.096;2023-03-01T03:18:45;17.90;81.10
33508;DHT22;25568;37.410;-122.096;2023-03-01T03:21:14;17.80;81.00
33508;DHT22;25568;37.410;-122.096;2023-03-01T03:23:43;17.90;81.00
33508;DHT22;25568;37.410;-122.096;2023-03-01T03:26:12;17.90;81.00
33508;DHT22;25568;37.410;-122.096;2023-03-01T03:28:41;17.90;81.00
33508;DHT22;25568;37.410;-122.096;2023-03-01T03:31:11;17.90;80.90
33508;DHT22;25568;37.410;-122.096;2023-03-01T03:33:42;17.90;80.90
33508;DHT22;25568;37.410;-122.096;2023-03-01T03:36:16;17.90;80.80
33508;DHT22;25568;37.410;-122.096;2023-03-01T03:38:45;17.90;80.80
33508;DHT22;25568;37.410;-122.096;2023-03-01T03:41:15;17.90;81.00
33508;DHT22;25568;37.410;-122.096;2023-03-01T03:43:44;17.90;80.90
33508;DHT22;25568;37.410;-122.096;2023-03-01T03:46:13;17.90;81.00
33508;DHT22;25568;37.410;-122.096;2023-03-01T03:48:46;17.90;80.90
33508;DHT22;25568;37.410;-122.096;2023-03-01T03:51:17;17.90;81.00
33508;DHT22;25568;37.410;-122.096;2023-03-01T03:53:46;17.90;81.00
33508;DHT22;25568;37.410;-122.096;2023-03-01T03:56:15;17.90;80.90
33508;DHT22;25568;37.410;-122.096;2023-03-01T03:58:44;17.90;81.10
33508;DHT22;25568;37.410;-122.096;2023-03-01T04:01:13;17.90;81.00
33508;DHT22;25568;37.410;-122.096;2023-03-01T04:03:42;17.90;81.10
33508;DHT22;25568;37.410;-122.096;2023-03-01T04:06:15;17.90;81.10
33508;DHT22;25568;37.410;-122.096;2023-03-01T04:08:43;17.90;81.00
33508;DHT22;25568;37.410;-122.096;2023-03-01T04:11:13;18.00;81.90
33508;DHT22;25568;37.410;-122.096;2023-03-01T04:13:58;17.90;80.80
33508;DHT22;25568;37.410;-122.096;2023-03-01T04:16:27;17.90;81.20
33508;DHT22;25568;37.410;-122.096;2023-03-01T04:18:55;18.00;81.90
33508;DHT22;25568;37.410;-122.096;2023-03-01T04:21:27;18.00;82.50
33508;DHT22;25568;37.410;-122.096;2023-03-01T04:23:56;18.10;82.90
33508;DHT22;25568;37.410;-122.096;2023-03-01T04:26:25;18.10;83.10
33508;DHT22;25568;37.410;-122.096;2023-03-01T04:28:55;18.10;84.00
33508;DHT22;25568;37.410;-122.096;2023-03-01T04:31:24;18.10;84.30
33508;DHT22;25568;37.410;-122.096;2023-03-01T04:33:54;18.10;84.50
33508;DHT22;25568;37.410;-122.096;2023-03-01T04:36:25;18.00;84.60
33508;DHT22;25568;37.410;-122.096;2023-03-01T04:38:56;18.00;84.80
33508;DHT22;25568;37.410;-122.096;2023-03-01T04:41:25;17.90;84.70
33508;DHT22;25568;37.410;-122.096;2023-03-01T04:43:54;17.90;84.70
33508;DHT22;25568;37.410;-122.096;2023-03-01T04:46:23;17.90;84.70
33508;DHT22;25568;37.410;-122.096;2023-03-01T04:48:52;17.90;84.60
33508;DHT22;25568;37.410;-122.096;2023-03-01T04:51:20;17.80;84.40
33508;DHT22;25568;37.410;-122.096;2023-03-01T04:53:49;17.80;84.10
33508;DHT22;25568;37.410;-122.096;2023-03-01T04:56:20;17.80;83.80
33508;DHT22;25568;37.410;-122.096;2023-03-01T04:58:53;17.80;83.50
33508;DHT22;25568;37.410;-122.096;2023-03-01T05:01:22;17.80;83.20
33508;DHT22;25568;37.410;-122.096;2023-03-01T05:03:52;17.70;82.70
33508;DHT22;25568;37.410;-122.096;2023-03-01T05:06:24;17.70;82.20
33508;DHT22;25568;37.410;-122.096;2023-03-01T05:08:54;17.70;82.20
33508;DHT22;25568;37.410;-122.096;2023-03-01T05:11:25;17.70;82.00
33508;DHT22;25568;37.410;-122.096;2023-03-01T05:13:54;17.70;81.70
33508;DHT22;25568;37.410;-122.096;2023-03-01T05:16:23;17.60;81.80
33508;DHT22;25568;37.410;-122.096;2023-03-01T05:18:52;17.60;81.40
33508;DHT22;25568;37.410;-122.096;2023-03-01T05:21:22;17.60;81.50
33508;DHT22;25568;37.410;-122.096;2023-03-01T05:23:51;17.60;81.30
33508;DHT22;25568;37.410;-122.096;2023-03-01T05:26:20;17.60;81.50
33508;DHT22;25568;37.410;-122.096;2023-03-01T05:28:57;17.60;81.30
33508;DHT22;25568;37.410;-122.096;2023-03-01T05:31:26;17.60;81.50
33508;DHT22;25568;37.410;-122.096;2023-03-01T05:33:55;17.70;81.50
33508;DHT22;25568;37.410;-122.096;2023-03-01T05:36:23;17.70;81.50
33508;DHT22;25568;37.410;-122.096;2023-03-01T05:38:52;17.70;81.80
33508;DHT22;25568;37.410;-122.096;2023-03-01T05:41:22;17.70;81.70
33508;DHT22;25568;37.410;-122.096;2023-03-01T05:43:51;17.70;82.00
33508;DHT22;25568;37.410;-122.096;2023-03-01T05:46:21;17.70;81.90
33508;DHT22;25568;37.410;-122.096;2023-03-01T05:48:51;17.70;81.90
33508;DHT22;25568;37.410;-122.096;2023-03-01T05:51:19;17.70;82.90
33508;DHT22;25568;37.410;-122.096;2023-03-01T05:53:48;17.70;82.20
33508;DHT22;25568;37.410;-122.096;2023-03-01T05:56:17;17.60;82.40
33508;DHT22;25568;37.410;-122.096;2023-03-01T05:58:48;17.60;82.50
33508;DHT22;25568;37.410;-122.096;2023-03-01T06:01:17;17.50;82.50
33508;DHT22;25568;37.410;-122.096;2023-03-01T06:03:48;17.50;82.70
33508;DHT22;25568;37.410;-122.096;2023-03-01T06:06:16;17.50;82.70
33508;DHT22;25568;37.410;-122.096;2023-03-01T06:08:45;17.50;82.80
33508;DHT22;25568;37.410;-122.096;2023-03-01T06:11:14;17.50;82.80
33508;DHT22;25568;37.410;-122.096;2023-03-01T06:13:43;17.40;82.70
33508;DHT22;25568;37.410;-122.096;2023-03-01T06:16:12;17.40;82.80
33508;DHT22;25568;37.410;-122.096;2023-03-01T06:18:42;17.40;82.70
33508;DHT22;25568;37.410;-122.096;2023-03-01T06:21:13;17.40;83.00
33508;DHT22;25568;37.410;-122.096;2023-03-01T06:23:41;17.30;83.20
33508;DHT22;25568;37.410;-122.096;2023-03-01T06:26:12;17.40;83.30
33508;DHT22;25568;37.410;-122.096;2023-03-01T06:28:41;17.30;83.50
33508;DHT22;25568;37.410;-122.096;2023-03-01T06:31:12;17.40;83.70
33508;DHT22;25568;37.410;-122.096;2023-03-01T06:33:41;17.40;83.70
33508;DHT22;25568;37.410;-122.096;2023-03-01T06:36:12;17.40;84.00
33508;DHT22;25568;37.410;-122.096;2023-03-01T06:38:45;17.40;83.80
33508;DHT22;25568;37.410;-122.096;2023-03-01T06:41:13;17.40;83.90
33508;DHT22;25568;37.410;-122.096;2023-03-01T06:43:42;17.40;84.00
33508;DHT22;25568;37.410;-122.096;2023-03-01T06:46:11;17.40;83.90
33508;DHT22;25568;37.410;-122.096;2023-03-01T06:48:40;17.40;84.00
33508;DHT22;25568;37.410;-122.096;2023-03-01T06:51:09;17.40;83.90
33508;DHT22;25568;37.410;-122.096;2023-03-01T06:53:39;17.40;83.90
33508;DHT22;25568;37.410;-122.096;2023-03-01T06:56:08;17.30;83.90
33508;DHT22;25568;37.410;-122.096;2023-03-01T06:58:37;17.30;83.90
33508;DHT22;25568;37.410;-122.096;2023-03-01T07:01:07;17.30;84.00
33508;DHT22;25568;37.410;-122.096;2023-03-01T07:03:36;17.20;84.00
33508;DHT22;25568;37.410;-122.096;2023-03-01T07:06:05;17.20;84.00
33508;DHT22;25568;37.410;-122.096;2023-03-01T07:08:34;17.20;84.00
33508;DHT22;25568;37.410;-122.096;2023-03-01T07:11:05;17.20;84.10
33508;DHT22;25568;37.410;-122.096;2023-03-01T07:13:34;17.20;84.10
33508;DHT22;25568;37.410;-122.096;2023-03-01T07:16:03;17.10;84.10
33508;DHT22;25568;37.410;-122.096;2023-03-01T07:21:05;17.10;84.10
33508;DHT22;25568;37.410;-122.096;2023-03-01T07:23:34;17.10;84.20
33508;DHT22;25568;37.410;-122.096;2023-03-01T07:26:05;17.00;84.10
33508;DHT22;25568;37.410;-122.096;2023-03-01T07:28:34;17.00;84.20
33508;DHT22;25568;37.410;-122.096;2023-03-01T07:31:06;17.00;84.80
33508;DHT22;25568;37.410;-122.096;2023-03-01T07:33:35;17.00;85.30
33508;DHT22;25568;37.410;-122.096;2023-03-01T07:36:05;17.00;85.80
33508;DHT22;25568;37.410;-122.096;2023-03-01T07:38:34;17.00;86.00
33508;DHT22;25568;37.410;-122.096;2023-03-01T07:41:04;17.00;86.10
33508;DHT22;25568;37.410;-122.096;2023-03-01T07:43:33;17.00;86.10
33508;DHT22;25568;37.410;-122.096;2023-03-01T07:46:03;17.00;86.20
33508;DHT22;25568;37.410;-122.096;2023-03-01T07:48:33;17.00;86.20
33508;DHT22;25568;37.410;-122.096;2023-03-01T07:51:03;17.00;86.30
33508;DHT22;25568;37.410;-122.096;2023-03-01T07:53:32;17.00;86.30
33508;DHT22;25568;37.410;-122.096;2023-03-01T07:56:05;16.90;86.40
33508;DHT22;25568;37.410;-122.096;2023-03-01T07:58:35;16.90;86.70
33508;DHT22;25568;37.410;-122.096;2023-03-01T08:01:04;16.90;86.90
33508;DHT22;25568;37.410;-122.096;2023-03-01T08:03:34;16.90;87.20
33508;DHT22;25568;37.410;-122.096;2023-03-01T08:06:04;16.90;87.30
33508;DHT22;25568;37.410;-122.096;2023-03-01T08:08:34;16.90;87.40
33508;DHT22;25568;37.410;-122.096;2023-03-01T08:11:06;16.90;87.60
33508;DHT22;25568;37.410;-122.096;2023-03-01T08:13:35;16.90;87.60
33508;DHT22;25568;37.410;-122.096;2023-03-01T08:16:05;16.90;87.60
33508;DHT22;25568;37.410;-122.096;2023-03-01T08:18:34;16.90;87.70
33508;DHT22;25568;37.410;-122.096;2023-03-01T08:21:04;16.80;87.50
33508;DHT22;25568;37.410;-122.096;2023-03-01T08:23:33;16.80;87.60
33508;DHT22;25568;37.410;-122.096;2023-03-01T08:26:11;16.80;87.70
33508;DHT22;25568;37.410;-122.096;2023-03-01T08:28:41;16.80;87.80
33508;DHT22;25568;37.410;-122.096;2023-03-01T08:31:19;16.80;87.90
33508;DHT22;25568;37.410;-122.096;2023-03-01T08:33:50;16.80;88.10
33508;DHT22;25568;37.410;-122.096;2023-03-01T08:36:22;16.80;88.30
33508;DHT22;25568;37.410;-122.096;2023-03-01T08:38:52;16.80;88.30
33508;DHT22;25568;37.410;-122.096;2023-03-01T08:41:22;16.80;88.50
33508;DHT22;25568;37.410;-122.096;2023-03-01T08:43:51;16.80;88.60
33508;DHT22;25568;37.410;-122.096;2023-03-01T08:46:25;16.80;88.70
33508;DHT22;25568;37.410;-122.096;2023-03-01T08:48:54;16.80;88.80
33508;DHT22;25568;37.410;-122.096;2023-03-01T08:51:24;16.80;88.90
33508;DHT22;25568;37.410;-122.096;2023-03-01T08:53:53;16.80;89.00
33508;DHT22;25568;37.410;-122.096;2023-03-01T08:56:23;16.80;89.20
33508;DHT22;25568;37.410;-122.096;2023-03-01T08:58:52;16.80;89.40
33508;DHT22;25568;37.410;-122.096;2023-03-01T09:01:21;16.80;89.40
33508;DHT22;25568;37.410;-122.096;2023-03-01T09:03:49;16.80;89.50
33508;DHT22;25568;37.410;-122.096;2023-03-01T09:06:19;16.70;89.50
33508;DHT22;25568;37.410;-122.096;2023-03-01T09:08:49;16.80;89.80
33508;DHT22;25568;37.410;-122.096;2023-03-01T09:11:19;16.80;89.90
33508;DHT22;25568;37.410;-122.096;2023-03-01T09:13:50;16.70;89.80
33508;DHT22;25568;37.410;-122.096;2023-03-01T09:16:20;16.70;89.90
33508;DHT22;25568;37.410;-122.096;2023-03-01T09:18:50;16.70;89.90
33508;DHT22;25568;37.410;-122.096;2023-03-01T09:21:21;16.70;90.00
33508;DHT22;25568;37.410;-122.096;2023-03-01T09:23:51;16.70;90.00
33508;DHT22;25568;37.410;-122.096;2023-03-01T09:26:22;16.70;90.10
33508;DHT22;25568;37.410;-122.096;2023-03-01T09:28:54;16.70;90.10
33508;DHT22;25568;37.410;-122.096;2023-03-01T09:31:24;16.70;90.10
33508;DHT22;25568;37.410;-122.096;2023-03-01T09:33:53;16.60;90.20
33508;DHT22;25568;37.410;-122.096;2023-03-01T09:36:24;16.60;90.20
33508;DHT22;25568;37.410;-122.096;2023-03-01T09:38:53;16.60;90.30
33508;DHT22;25568;37.410;-122.096;2023-03-01T09:44:35;16.60;90.30
33508;DHT22;25568;37.410;-122.096;2023-03-01T09:47:10;16.60;90.40
33508;DHT22;25568;37.410;-122.096;2023-03-01T09:49:42;16.60;90.40
33508;DHT22;25568;37.410;-122.096;2023-03-01T09:52:22;16.60;90.50
33508;DHT22;25568;37.410;-122.096;2023-03-01T09:54:55;16.60;90.60
33508;DHT22;25568;37.410;-122.096;2023-03-01T09:57:31;16.50;90.60
33508;DHT22;25568;37.410;-122.096;2023-03-01T10:00:28;16.50;90.90
33508;DHT22;25568;37.410;-122.096;2023-03-01T10:03:04;16.50;90.60
33508;DHT22;25568;37.410;-122.096;2023-03-01T10:05:43;16.50;90.70
33508;DHT22;25568;37.410;-122.096;2023-03-01T10:08:32;16.50;90.70
33508;DHT22;25568;37.410;-122.096;2023-03-01T10:11:05;16.50;90.70
33508;DHT22;25568;37.410;-122.096;2023-03-01T10:13:41;16.50;90.70
33508;DHT22;25568;37.410;-122.096;2023-03-01T10:16:16;16.50;90.80
33508;DHT22;25568;37.410;-122.096;2023-03-01T10:18:51;16.50;90.80
33508;DHT22;25568;37.410;-122.096;2023-03-01T10:21:21;16.40;90.80
33508;DHT22;25568;37.410;-122.096;2023-03-01T10:23:52;16.40;90.80
33508;DHT22;25568;37.410;-122.096;2023-03-01T10:26:43;16.40;90.80
33508;DHT22;25568;37.410;-122.096;2023-03-01T10:29:14;16.40;90.90
33508;DHT22;25568;37.410;-122.096;2023-03-01T10:31:47;16.40;90.90
33508;DHT22;25568;37.410;-122.096;2023-03-01T10:34:19;16.40;90.90
33508;DHT22;25568;37.410;-122.096;2023-03-01T10:36:50;16.40;91.00
33508;DHT22;25568;37.410;-122.096;2023-03-01T10:39:21;16.40;91.10
33508;DHT22;25568;37.410;-122.096;2023-03-01T10:41:55;16.40;91.10
33508;DHT22;25568;37.410;-122.096;2023-03-01T10:44:39;16.40;91.10
33508;DHT22;25568;37.410;-122.096;2023-03-01T10:47:18;16.40;91.10
33508;DHT22;25568;37.410;-122.096;2023-03-01T10:49:57;16.40;91.10
33508;DHT22;25568;37.410;-122.096;2023-03-01T10:52:29;16.40;91.10
33508;DHT22;25568;37.410;-122.096;2023-03-01T10:55:00;16.40;91.10
33508;DHT22;25568;37.410;-122.096;2023-03-01T10:57:37;16.40;91.20
33508;DHT22;25568;37.410;-122.096;2023-03-01T11:00:19;16.30;91.20
33508;DHT22;25568;37.410;-122.096;2023-03-01T11:03:02;16.30;91.20
33508;DHT22;25568;37.410;-122.096;2023-03-01T11:05:34;16.30;91.30
33508;DHT22;25568;37.410;-122.096;2023-03-01T11:08:03;16.30;91.30
33508;DHT22;25568;37.410;-122.096;2023-03-01T11:10:33;16.30;91.30
33508;DHT22;25568;37.410;-122.096;2023-03-01T11:13:14;16.30;91.30
33508;DHT22;25568;37.410;-122.096;2023-03-01T11:15:44;16.30;91.30
33508;DHT22;25568;37.410;-122.096;2023-03-01T11:18:30;16.30;91.40
33508;DHT22;25568;37.410;-122.096;2023-03-01T11:21:00;16.30;91.40
33508;DHT22;25568;37.410;-122.096;2023-03-01T11:23:31;16.30;91.50
33508;DHT22;25568;37.410;-122.096;2023-03-01T11:26:02;16.30;91.50
33508;DHT22;25568;37.410;-122.096;2023-03-01T11:31:16;16.20;91.50
33508;DHT22;25568;37.410;-122.096;2023-03-01T11:33:53;16.20;91.50
33508;DHT22;25568;37.410;-122.096;2023-03-01T11:36:30;16.20;91.50
33508;DHT22;25568;37.410;-122.096;2023-03-01T11:39:10;16.20;91.50
33508;DHT22;25568;37.410;-122.096;2023-03-01T11:41:42;16.20;91.50
33508;DHT22;25568;37.410;-122.096;2023-03-01T11:44:16;16.10;91.50
33508;DHT22;25568;37.410;-122.096;2023-03-01T11:50:08;16.10;91.40
33508;DHT22;25568;37.410;-122.096;2023-03-01T11:52:48;16.10;91.40
33508;DHT22;25568;37.410;-122.096;2023-03-01T11:55:30;16.10;91.50
33508;DHT22;25568;37.410;-122.096;2023-03-01T11:58:17;16.10;91.50
33508;DHT22;25568;37.410;-122.096;2023-03-01T12:01:07;16.10;91.50
33508;DHT22;25568;37.410;-122.096;2023-03-01T12:06:55;16.00;91.50
33508;DHT22;25568;37.410;-122.096;2023-03-01T12:09:36;16.00;91.60
33508;DHT22;25568;37.410;-122.096;2023-03-01T12:12:39;16.00;91.60
33508;DHT22;25568;37.410;-122.096;2023-03-01T12:15:32;16.10;91.80
33508;DHT22;25568;37.410;-122.096;2023-03-01T12:18:21;16.10;91.80
33508;DHT22;25568;37.410;-122.096;2023-03-01T12:21:01;16.00;91.70
33508;DHT22;25568;37.410;-122.096;2023-03-01T12:23:59;16.00;91.80
33508;DHT22;25568;37.410;-122.096;2023-03-01T12:26:34;16.00;91.70
33508;DHT22;25568;37.410;-122.096;2023-03-01T12:29:19;16.00;91.80
33508;DHT22;25568;37.410;-122.096;2023-03-01T12:35:03;16.00;91.90
33508;DHT22;25568;37.410;-122.096;2023-03-01T12:37:42;16.00;91.90
33508;DHT22;25568;37.410;-122.096;2023-03-01T12:40:29;16.00;91.90
33508;DHT22;25568;37.410;-122.096;2023-03-01T12:43:13;16.00;91.90
33508;DHT22;25568;37.410;-122.096;2023-03-01T12:45:54;16.00;91.90
33508;DHT22;25568;37.410;-122.096;2023-03-01T12:48:40;16.00;92.00
33508;DHT22;25568;37.410;-122.096;2023-03-01T12:51:15;16.00;92.00
33508;DHT22;25568;37.410;-122.096;2023-03-01T12:53:47;15.90;92.00
33508;DHT22;25568;37.410;-122.096;2023-03-01T12:56:20;15.90;92.00
33508;DHT22;25568;37.410;-122.096;2023-03-01T12:58:57;16.00;92.10
33508;DHT22;25568;37.410;-122.096;2023-03-01T13:01:36;15.90;92.10
33508;DHT22;25568;37.410;-122.096;2023-03-01T13:04:33;15.90;92.10
33508;DHT22;25568;37.410;-122.096;2023-03-01T13:07:18;15.90;92.10
33508;DHT22;25568;37.410;-122.096;2023-03-01T13:09:54;15.90;92.10
33508;DHT22;25568;37.410;-122.096;2023-03-01T13:12:50;15.90;92.10
33508;DHT22;25568;37.410;-122.096;2023-03-01T13:15:30;15.90;92.20
33508;DHT22;25568;37.410;-122.096;2023-03-01T13:18:00;15.90;92.20
33508;DHT22;25568;37.410;-122.096;2023-03-01T13:20:33;15.90;92.20
33508;DHT22;25568;37.410;-122.096;2023-03-01T13:23:12;15.90;92.20
33508;DHT22;25568;37.410;-122.096;2023-03-01T13:26:15;15.90;92.30
33508;DHT22;25568;37.410;-122.096;2023-03-01T13:28:56;15.90;92.60
33508;DHT22;25568;37.410;-122.096;2023-03-01T13:32:00;15.90;92.30
33508;DHT22;25568;37.410;-122.096;2023-03-01T13:34:59;15.80;92.30
33508;DHT22;25568;37.410;-122.096;2023-03-01T13:37:33;15.80;92.30
33508;DHT22;25568;37.410;-122.096;2023-03-01T13:42:54;15.80;92.40
33508;DHT22;25568;37.410;-122.096;2023-03-01T13:45:35;15.80;92.40
33508;DHT22;25568;37.410;-122.096;2023-03-01T13:48:10;15.80;92.30
33508;DHT22;25568;37.410;-122.096;2023-03-01T13:50:46;15.80;92.30
33508;DHT22;25568;37.410;-122.096;2023-03-01T13:53:18;15.80;92.30
33508;DHT22;25568;37.410;-122.096;2023-03-01T13:55:49;15.80;92.30
33508;DHT22;25568;37.410;-122.096;2023-03-01T13:58:23;15.80;92.30
33508;DHT22;25568;37.410;-122.096;2023-03-01T14:01:02;15.80;92.30
33508;DHT22;25568;37.410;-122.096;2023-03-01T14:03:32;15.70;92.30
33508;DHT22;25568;37.410;-122.096;2023-03-01T14:06:05;15.70;92.30
33508;DHT22;25568;37.410;-122.096;2023-03-01T14:08:37;15.70;92.30
33508;DHT22;25568;37.410;-122.096;2023-03-01T14:11:29;15.70;92.30
33508;DHT22;25568;37.410;-122.096;2023-03-01T14:14:30;15.70;92.70
33508;DHT22;25568;37.410;-122.096;2023-03-01T14:17:18;15.70;92.30
33508;DHT22;25568;37.410;-122.096;2023-03-01T14:19:57;15.70;92.30
33508;DHT22;25568;37.410;-122.096;2023-03-01T14:22:28;15.80;92.20
33508;DHT22;25568;37.410;-122.096;2023-03-01T14:24:58;15.90;92.10
33508;DHT22;25568;37.410;-122.096;2023-03-01T14:27:32;15.90;92.10
33508;DHT22;25568;37.410;-122.096;2023-03-01T14:30:04;16.00;92.00
33508;DHT22;25568;37.410;-122.096;2023-03-01T14:32:40;16.00;92.40
33508;DHT22;25568;37.410;-122.096;2023-03-01T14:35:20;16.10;92.10
33508;DHT22;25568;37.410;-122.096;2023-03-01T14:37:49;16.20;92.00
33508;DHT22;25568;37.410;-122.096;2023-03-01T14:40:24;16.20;92.00
33508;DHT22;25568;37.410;-122.096;2023-03-01T14:42:56;16.20;92.00
33508;DHT22;25568;37.410;-122.096;2023-03-01T14:45:27;16.30;92.00
33508;DHT22;25568;37.410;-122.096;2023-03-01T14:48:00;16.30;91.90
33508;DHT22;25568;37.410;-122.096;2023-03-01T14:50:32;16.40;91.90
33508;DHT22;25568;37.410;-122.096;2023-03-01T14:53:03;16.40;91.90
33508;DHT22;25568;37.410;-122.096;2023-03-01T14:55:35;16.50;91.90
33508;DHT22;25568;37.410;-122.096;2023-03-01T14:58:08;16.50;91.90
33508;DHT22;25568;37.410;-122.096;2023-03-01T15:00:38;16.40;92.10
33508;DHT22;25568;37.410;-122.096;2023-03-01T15:03:14;16.30;92.10
33508;DHT22;25568;37.410;-122.096;2023-03-01T15:05:46;16.30;92.10
33508;DHT22;25568;37.410;-122.096;2023-03-01T15:08:19;16.30;91.90
33508;DHT22;25568;37.410;-122.096;2023-03-01T15:10:59;16.30;91.70
33508;DHT22;25568;37.410;-122.096;2023-03-01T15:13:31;16.30;91.40
33508;DHT22;25568;37.410;-122.096;2023-03-01T15:16:09;16.40;91.30
33508;DHT22;25568;37.410;-122.096;2023-03-01T15:18:44;16.30;91.10
33508;DHT22;25568;37.410;-122.096;2023-03-01T15:21:19;16.30;91.00
33508;DHT22;25568;37.410;-122.096;2023-03-01T15:23:51;16.30;90.80
33508;DHT22;25568;37.410;-122.096;2023-03-01T15:26:29;16.20;90.80
33508;DHT22;25568;37.410;-122.096;2023-03-01T15:28:59;16.20;90.60
33508;DHT22;25568;37.410;-122.096;2023-03-01T15:31:31;16.20;90.50
33508;DHT22;25568;37.410;-122.096;2023-03-01T15:34:24;16.10;90.30
33508;DHT22;25568;37.410;-122.096;2023-03-01T15:36:55;16.10;90.20
33508;DHT22;25568;37.410;-122.096;2023-03-01T15:39:34;16.10;90.00
33508;DHT22;25568;37.410;-122.096;2023-03-01T15:42:07;16.00;89.90
33508;DHT22;25568;37.410;-122.096;2023-03-01T15:44:38;16.00;89.70